Bayard, Nebraska
Current Conditions -  °F | °C
As of 12:53 PM on Thursday 23 Oct 2014 (Local Time) from KBFF Reporting Station
Clear Clear  
Wind Chill: 66°   Ceiling: Unl
Heat Index: 66°   Visibility: 10mi
Dew Point: 39°   Wind: 6mph
Humidity: 37%   Direction: 280°W
Pressure: 30.05"   Gusts: NA
Location:  41.75°N, 103.32°W
Report Text: KBFF 231853Z AUTO 28005KT 10SM CLR 19/04 A3005 RMK AO2 SLP161 T01890039 $
Loading
Personal Weather Stations






























Interactive Weather Map
Tropical Storm Tracking
New forecast layout! Learn more

10-Day Weather Forecast

Advertisements
Track Severe Weather on mobile